Time;durP1;ratioP1;P1;durP2;ratioP2;P2;SDS_P1;SDS_P2;PMS_P1;PMS_P2;Temp;Humidity;BMP_temperature;BMP_pressure;BME280_temperature;BME280_humidity;BME280_pressure;Samples;Min_cycle;Max_cycle;Signal;HPM_P1;HPM_P2
2021/09/09 00:00:46;;;;;;;18.00;14.20;;;;;;;12.65;100.00;100929.53;4974498;28;20043;-78
2021/09/09 00:03:13;;;;;;;17.10;14.10;;;;;;;12.72;100.00;100931.13;4940497;28;20435;-77
2021/09/09 00:05:40;;;;;;;18.73;14.98;;;;;;;12.66;100.00;100931.25;4924334;28;20419;-79
2021/09/09 00:08:07;;;;;;;19.10;14.32;;;;;;;12.66;100.00;100932.13;4956670;28;20102;-81
2021/09/09 00:10:34;;;;;;;17.38;13.93;;;;;;;12.62;100.00;100937.56;4969512;28;20416;-79
2021/09/09 00:13:00;;;;;;;17.30;13.25;;;;;;;12.59;100.00;100940.28;4946208;28;20050;-79
2021/09/09 00:15:27;;;;;;;16.88;12.57;;;;;;;12.55;100.00;100936.84;4953065;28;20039;-78
2021/09/09 00:17:54;;;;;;;19.38;14.98;;;;;;;12.50;100.00;100935.19;4944515;28;20051;-78
2021/09/09 00:20:20;;;;;;;16.48;13.18;;;;;;;12.48;100.00;100937.03;4940639;28;20031;-79
2021/09/09 00:22:47;;;;;;;17.45;14.23;;;;;;;12.50;100.00;100932.53;4944238;28;20034;-79
2021/09/09 00:25:14;;;;;;;21.92;14.85;;;;;;;12.44;100.00;100930.03;4943024;28;20045;-79
2021/09/09 00:27:41;;;;;;;18.52;14.65;;;;;;;12.45;100.00;100923.84;4963562;28;20042;-79
2021/09/09 00:30:08;;;;;;;16.10;13.60;;;;;;;12.45;100.00;100915.91;4950221;28;20043;-79
2021/09/09 00:32:36;;;;;;;15.50;13.25;;;;;;;12.39;100.00;100917.78;4944312;28;20383;-79
2021/09/09 00:35:03;;;;;;;18.40;13.50;;;;;;;12.38;100.00;100917.81;4967975;28;20049;-78
2021/09/09 00:37:29;;;;;;;19.33;14.57;;;;;;;12.33;100.00;100922.34;4955018;28;20496;-79
2021/09/09 00:39:56;;;;;;;16.48;13.55;;;;;;;12.35;100.00;100912.56;4927874;28;20408;-79
2021/09/09 00:42:23;;;;;;;17.40;13.50;;;;;;;12.35;100.00;100916.09;4956391;28;20054;-78
2021/09/09 00:44:49;;;;;;;19.33;15.38;;;;;;;12.30;100.00;100922.44;4946548;28;20424;-79
2021/09/09 00:47:16;;;;;;;19.27;14.25;;;;;;;12.36;100.00;100917.88;4936632;28;20043;-79
2021/09/09 00:49:44;;;;;;;18.20;14.20;;;;;;;12.29;100.00;100918.03;4951358;28;20055;-79
2021/09/09 00:52:12;;;;;;;19.70;14.52;;;;;;;12.27;100.00;100912.75;4951672;28;20049;-80
2021/09/09 00:54:40;;;;;;;18.23;14.85;;;;;;;12.25;100.00;100908.41;4937744;28;20039;-79
2021/09/09 00:57:08;;;;;;;16.70;14.45;;;;;;;12.19;100.00;100912.09;4950142;28;20459;-80
2021/09/09 00:59:35;;;;;;;19.98;15.45;;;;;;;12.19;100.00;100903.25;4937723;28;20042;-79
2021/09/09 01:02:03;;;;;;;19.88;15.02;;;;;;;12.19;100.00;100909.44;4942388;28;20054;-79
2021/09/09 01:04:30;;;;;;;19.38;14.38;;;;;;;12.14;100.00;100903.38;4938506;28;20055;-79
2021/09/09 01:06:56;;;;;;;18.50;14.18;;;;;;;12.15;100.00;100909.53;4930637;28;20058;-80
2021/09/09 01:09:23;;;;;;;15.93;13.63;;;;;;;12.11;100.00;100908.75;4926077;28;20039;-79
2021/09/09 01:11:50;;;;;;;20.08;14.65;;;;;;;12.14;100.00;100913.09;4949286;28;20059;-79
2021/09/09 01:14:18;;;;;;;17.48;14.90;;;;;;;12.09;100.00;100910.53;4941503;28;20081;-80
2021/09/09 01:16:46;;;;;;;18.15;13.27;;;;;;;12.06;100.00;100911.47;4953520;28;20042;-80
2021/09/09 01:19:13;;;;;;;22.30;14.02;;;;;;;11.99;100.00;100911.66;4953527;28;20058;-78
2021/09/09 01:21:41;;;;;;;18.88;14.10;;;;;;;11.99;100.00;100912.53;4937047;28;20042;-79
2021/09/09 01:24:18;;;;;;;18.20;14.13;;;;;;;12.01;100.00;100909.84;4931418;28;20046;-79
2021/09/09 01:26:56;;;;;;;17.80;13.52;;;;;;;11.98;100.00;100908.13;4973870;28;20034;-79
2021/09/09 01:29:25;;;;;;;19.10;16.38;;;;;;;11.98;100.00;100907.25;4966344;28;20061;-79
2021/09/09 01:31:52;;;;;;;19.17;14.70;;;;;;;12.00;100.00;100903.66;4958378;28;20432;-79
2021/09/09 01:34:19;;;;;;;17.45;14.55;;;;;;;11.97;100.00;100898.44;4959191;28;20049;-79
2021/09/09 01:36:46;;;;;;;17.55;14.52;;;;;;;12.01;100.00;100907.19;4955943;28;20042;-79
2021/09/09 01:39:13;;;;;;;20.08;14.50;;;;;;;11.93;100.00;100909.13;4969982;28;20605;-79
2021/09/09 01:41:40;;;;;;;18.98;14.43;;;;;;;11.88;100.00;100908.38;4956607;28;20415;-79
2021/09/09 01:44:06;;;;;;;19.02;14.48;;;;;;;11.86;100.00;100908.41;4955547;28;20045;-78
2021/09/09 01:46:36;;;;;;;17.38;14.13;;;;;;;11.83;100.00;100906.69;4947289;28;20133;-79
2021/09/09 01:49:05;;;;;;;18.05;13.88;;;;;;;11.82;100.00;100907.59;4937456;28;20043;-79
2021/09/09 01:51:32;;;;;;;19.38;15.65;;;;;;;11.81;100.00;100911.16;4962456;28;20137;-79
2021/09/09 01:53:58;;;;;;;16.05;13.15;;;;;;;11.81;100.00;100897.91;4967027;28;20664;-79
2021/09/09 01:56:25;;;;;;;18.15;13.90;;;;;;;11.80;100.00;100901.47;4953278;28;20061;-79
2021/09/09 01:58:52;;;;;;;19.55;14.05;;;;;;;11.71;100.00;100906.94;4939229;28;20046;-79
2021/09/09 02:01:22;;;;;;;17.65;13.88;;;;;;;11.67;100.00;100902.59;4955073;28;20057;-80
2021/09/09 02:03:49;;;;;;;18.67;14.43;;;;;;;11.68;100.00;100896.38;4929506;28;20049;-79
2021/09/09 02:06:16;;;;;;;17.48;13.93;;;;;;;11.67;100.00;100894.66;4937525;28;20055;-79
2021/09/09 02:08:43;;;;;;;19.15;13.95;;;;;;;11.64;100.00;100896.50;4937526;28;20519;-79
2021/09/09 02:11:11;;;;;;;16.80;13.93;;;;;;;11.61;100.00;100894.81;4952617;28;20634;-79
2021/09/09 02:13:40;;;;;;;17.80;13.38;;;;;;;11.63;100.00;100898.28;4956812;28;20060;-79
2021/09/09 02:16:08;;;;;;;18.85;13.55;;;;;;;11.65;100.00;100887.66;4936925;28;20047;-78
2021/09/09 02:18:35;;;;;;;19.98;14.27;;;;;;;11.64;100.00;100889.44;4971346;28;20038;-79
2021/09/09 02:21:01;;;;;;;22.15;14.38;;;;;;;11.66;100.00;100892.03;4957784;28;20508;-78
2021/09/09 02:23:28;;;;;;;20.60;14.75;;;;;;;11.60;100.00;100889.50;4960587;28;20510;-79
2021/09/09 02:25:55;;;;;;;18.77;14.27;;;;;;;11.62;100.00;100885.09;4953303;28;20050;-79
2021/09/09 02:28:21;;;;;;;22.20;15.48;;;;;;;11.58;100.00;100892.19;4954868;28;20045;-79
2021/09/09 02:30:48;;;;;;;19.65;14.82;;;;;;;11.56;100.00;100880.78;4943436;28;20047;-79
2021/09/09 02:33:15;;;;;;;19.60;14.90;;;;;;;11.54;100.00;100882.59;4938717;28;20129;-79
2021/09/09 02:35:42;;;;;;;18.85;15.05;;;;;;;11.45;100.00;100885.44;4967143;28;20038;-79
2021/09/09 02:38:09;;;;;;;17.58;14.32;;;;;;;11.41;100.00;100875.81;4947736;28;20694;-79
2021/09/09 02:40:35;;;;;;;19.15;13.95;;;;;;;11.41;100.00;100878.44;4957983;28;20039;-78
2021/09/09 02:43:02;;;;;;;16.35;13.52;;;;;;;11.35;100.00;100876.81;4933500;28;20038;-78
2021/09/09 02:45:29;;;;;;;17.80;13.82;;;;;;;11.37;100.00;100875.00;4962673;28;20047;-79
2021/09/09 02:47:56;;;;;;;17.40;13.35;;;;;;;11.35;100.00;100875.91;4929009;28;20783;-79
2021/09/09 02:50:23;;;;;;;17.60;13.27;;;;;;;11.30;100.00;100870.75;4931370;28;20043;-79
2021/09/09 02:52:50;;;;;;;18.90;14.23;;;;;;;11.26;100.00;100869.91;4943147;28;20559;-79
2021/09/09 02:55:17;;;;;;;17.45;13.10;;;;;;;11.27;100.00;100868.16;4935473;28;20046;-79
2021/09/09 02:57:44;;;;;;;19.80;14.73;;;;;;;11.32;100.00;100865.41;4964760;28;20043;-78
2021/09/09 03:00:12;;;;;;;18.55;14.07;;;;;;;11.32;100.00;100861.00;4952282;28;20070;-79
2021/09/09 03:02:39;;;;;;;19.90;13.93;;;;;;;11.22;100.00;100872.66;4955415;28;20495;-78
2021/09/09 03:05:08;;;;;;;17.08;13.75;;;;;;;11.22;100.00;100868.25;4930637;28;20062;-78
2021/09/09 03:07:34;;;;;;;16.15;12.40;;;;;;;11.19;100.00;100860.38;4943143;28;20443;-79
2021/09/09 03:10:01;;;;;;;17.00;13.25;;;;;;;11.20;100.00;100862.13;4969624;28;20046;-79
2021/09/09 03:12:28;;;;;;;16.75;12.85;;;;;;;11.19;100.00;100860.38;4946323;28;20039;-79
2021/09/09 03:14:54;;;;;;;17.63;13.73;;;;;;;11.18;100.00;100860.38;4956946;28;20179;-79
2021/09/09 03:17:21;;;;;;;19.60;13.93;;;;;;;11.18;100.00;100861.28;4938754;28;20081;-78
2021/09/09 03:19:48;;;;;;;20.05;14.48;;;;;;;11.14;100.00;100859.59;4943382;28;20118;-79
2021/09/09 03:22:15;;;;;;;18.13;13.73;;;;;;;11.08;100.00;100849.13;4949319;28;20042;-78
2021/09/09 03:24:42;;;;;;;16.95;13.63;;;;;;;11.06;100.00;100856.22;4996681;28;20061;-78
2021/09/09 03:27:08;;;;;;;19.25;14.32;;;;;;;11.05;100.00;100851.84;4957787;28;20132;-79
2021/09/09 03:29:35;;;;;;;18.75;13.90;;;;;;;11.07;100.00;100846.50;4945732;28;20042;-78
2021/09/09 03:32:02;;;;;;;20.70;15.88;;;;;;;11.09;100.00;100853.50;4937732;28;20055;-78
2021/09/09 03:34:31;;;;;;;16.83;13.85;;;;;;;11.04;100.00;100846.59;4954210;28;20047;-80
2021/09/09 03:36:58;;;;;;;17.92;14.18;;;;;;;11.00;100.00;100851.03;4948814;28;20572;-80
2021/09/09 03:39:25;;;;;;;19.90;14.98;;;;;;;10.95;100.00;100848.50;4934057;28;20038;-80
2021/09/09 03:41:51;;;;;;;17.95;14.43;;;;;;;10.94;100.00;100851.19;4966500;28;20058;-79
2021/09/09 03:44:18;;;;;;;18.17;13.98;;;;;;;10.92;100.00;100845.91;4938142;28;20050;-80
2021/09/09 03:46:45;;;;;;;19.95;14.00;;;;;;;10.85;100.00;100849.59;4963897;28;20106;-78
2021/09/09 03:49:11;;;;;;;17.88;13.98;;;;;;;10.83;100.00;100845.19;4936843;28;20042;-78
2021/09/09 03:51:38;;;;;;;19.83;14.05;;;;;;;10.82;100.00;100839.03;4946619;28;20053;-79
2021/09/09 03:54:05;;;;;;;17.25;13.85;;;;;;;10.82;100.00;100843.47;4950365;28;20508;-80
2021/09/09 03:56:31;;;;;;;21.77;14.13;;;;;;;10.75;100.00;100833.91;4966956;28;20105;-78
2021/09/09 03:58:58;;;;;;;20.00;14.15;;;;;;;10.70;100.00;100832.22;4958458;28;20047;-78
2021/09/09 04:01:25;;;;;;;18.25;13.45;;;;;;;10.77;100.00;100826.84;4951671;28;20413;-79
2021/09/09 04:03:52;;;;;;;17.63;13.80;;;;;;;10.74;100.00;100830.38;4928713;28;20054;-78
2021/09/09 04:06:21;;;;;;;18.50;13.93;;;;;;;10.74;100.00;100832.16;4951405;28;20043;-79
2021/09/09 04:08:48;;;;;;;22.63;14.63;;;;;;;10.75;100.00;100825.97;4962882;28;20474;-79
2021/09/09 04:11:14;;;;;;;19.58;14.30;;;;;;;10.77;100.00;100829.47;4961767;28;20035;-79
2021/09/09 04:13:41;;;;;;;19.55;13.95;;;;;;;10.69;100.00;100833.13;4955486;28;20057;-79
2021/09/09 04:16:08;;;;;;;18.92;13.60;;;;;;;10.69;100.00;100822.56;4951927;28;20047;-80
2021/09/09 04:18:34;;;;;;;20.77;14.43;;;;;;;10.65;100.00;100828.78;4956266;28;20646;-79
2021/09/09 04:21:01;;;;;;;18.80;14.23;;;;;;;10.59;100.00;100830.66;4935565;28;20053;-80
2021/09/09 04:23:28;;;;;;;18.35;13.60;;;;;;;10.58;100.00;100818.34;4949097;28;20046;-80
2021/09/09 04:25:54;;;;;;;19.13;14.45;;;;;;;10.56;100.00;100821.03;4948076;28;20050;-79
2021/09/09 04:28:21;;;;;;;21.38;15.10;;;;;;;10.57;100.00;100814.84;4967559;28;20035;-78
2021/09/09 04:30:51;;;;;;;18.77;13.55;;;;;;;10.53;100.00;100817.59;4963172;28;20046;-80
2021/09/09 04:33:18;;;;;;;16.80;13.38;;;;;;;10.52;100.00;100818.50;4948489;28;20083;-80
2021/09/09 04:35:45;;;;;;;18.90;14.27;;;;;;;10.61;100.00;100815.69;4959654;28;20043;-80
2021/09/09 04:38:12;;;;;;;18.02;13.48;;;;;;;10.57;100.00;100819.25;4945141;28;20070;-79
2021/09/09 04:40:38;;;;;;;18.23;14.75;;;;;;;10.58;100.00;100816.56;4955126;28;20050;-80
2021/09/09 04:43:06;;;;;;;20.48;14.57;;;;;;;10.51;100.00;100816.72;4945840;28;20050;-80
2021/09/09 04:45:33;;;;;;;17.50;13.88;;;;;;;10.52;100.00;100811.44;4962101;28;20508;-80
2021/09/09 04:48:00;;;;;;;17.58;14.05;;;;;;;10.48;100.00;100822.94;4969707;28;20407;-79
2021/09/09 04:50:27;;;;;;;17.52;13.20;;;;;;;10.45;100.00;100819.50;4989309;28;20479;-80
2021/09/09 04:52:54;;;;;;;17.50;13.73;;;;;;;10.45;100.00;100819.50;4957513;28;20047;-79
2021/09/09 04:55:20;;;;;;;18.80;14.60;;;;;;;10.41;100.00;100813.38;4929078;28;20042;-80
2021/09/09 04:57:47;;;;;;;19.45;14.63;;;;;;;10.45;100.00;100816.84;4952363;28;20046;-80
2021/09/09 05:00:14;;;;;;;20.90;14.98;;;;;;;10.46;100.00;100813.31;4951427;28;20101;-78
2021/09/09 05:02:41;;;;;;;17.75;13.95;;;;;;;10.52;100.00;100811.44;4954363;28;20060;-80
2021/09/09 05:05:08;;;;;;;22.13;15.55;;;;;;;10.52;100.00;100808.78;4934082;28;20073;-80
2021/09/09 05:07:35;;;;;;;20.50;14.73;;;;;;;10.52;100.00;100807.91;4953846;28;20068;-79
2021/09/09 05:10:03;;;;;;;22.50;15.07;;;;;;;10.48;100.00;100807.09;4952389;28;20456;-80
2021/09/09 05:12:30;;;;;;;18.65;14.18;;;;;;;10.51;100.00;100806.16;4944509;28;20042;-79
2021/09/09 05:14:57;;;;;;;19.05;14.95;;;;;;;10.50;100.00;100805.28;4948509;28;20403;-81
2021/09/09 05:17:24;;;;;;;17.00;13.75;;;;;;;10.53;100.00;100799.97;4956397;28;20047;-80
2021/09/09 05:19:50;;;;;;;18.10;14.25;;;;;;;10.50;100.00;100805.28;4944621;28;20046;-80
2021/09/09 05:22:17;;;;;;;19.10;14.57;;;;;;;10.57;100.00;100795.47;4936530;28;20050;-80
2021/09/09 05:24:44;;;;;;;18.55;14.43;;;;;;;10.58;100.00;100786.66;4948424;28;20043;-81
2021/09/09 05:27:10;;;;;;;18.10;13.85;;;;;;;10.56;100.00;100786.69;4969168;28;20053;-80
2021/09/09 05:29:37;;;;;;;19.63;14.88;;;;;;;10.61;100.00;100779.56;4958614;28;20047;-80
2021/09/09 05:32:04;;;;;;;22.40;16.20;;;;;;;10.69;100.00;100784.69;4961642;28;20049;-80
2021/09/09 05:34:31;;;;;;;19.55;14.95;;;;;;;10.69;100.00;100782.94;4943827;28;20049;-79
2021/09/09 05:36:58;;;;;;;21.08;15.48;;;;;;;10.77;100.00;100787.19;4948378;28;20050;-81
2021/09/09 05:39:25;;;;;;;18.35;13.95;;;;;;;10.75;100.00;100783.69;4967905;28;20046;-79
2021/09/09 05:41:52;;;;;;;18.20;15.07;;;;;;;10.76;100.00;100778.38;4944886;28;20050;-80
2021/09/09 05:44:18;;;;;;;22.35;15.80;;;;;;;10.87;100.00;100778.19;4952483;28;20046;-80
2021/09/09 05:46:45;;;;;;;20.25;15.88;;;;;;;10.85;100.00;100775.56;4953868;28;20049;-80
2021/09/09 05:49:12;;;;;;;21.15;15.60;;;;;;;10.93;100.00;100778.94;4949381;28;20053;-79
2021/09/09 05:51:38;;;;;;;22.58;16.13;;;;;;;10.93;100.00;100778.03;4954253;28;20042;-79
2021/09/09 05:54:05;;;;;;;21.33;15.57;;;;;;;11.00;100.00;100779.66;4954782;28;20058;-79
2021/09/09 05:56:31;;;;;;;22.50;15.10;;;;;;;11.04;100.00;100770.78;4942292;28;20043;-78
2021/09/09 05:58:58;;;;;;;19.27;14.93;;;;;;;11.05;100.00;100774.28;4948021;28;20043;-79
2021/09/09 06:01:25;;;;;;;20.95;15.85;;;;;;;11.13;100.00;100772.38;4957786;28;20034;-79
2021/09/09 06:03:53;;;;;;;21.42;16.00;;;;;;;11.12;100.00;100771.50;4952609;28;20105;-81
2021/09/09 06:06:19;;;;;;;19.52;15.32;;;;;;;11.18;100.00;100763.44;4939314;28;20050;-79
2021/09/09 06:08:46;;;;;;;22.92;15.07;;;;;;;11.19;100.00;100769.59;4950947;28;20070;-79
2021/09/09 06:11:16;;;;;;;18.58;15.82;;;;;;;11.27;100.00;100767.66;4957005;28;20039;-79
2021/09/09 06:13:42;;;;;;;23.95;17.13;;;;;;;11.27;100.00;100763.25;4967980;28;20038;-79
2021/09/09 06:16:09;;;;;;;20.92;16.13;;;;;;;11.32;100.00;100768.41;4956544;28;20050;-80
2021/09/09 06:18:39;;;;;;;21.20;15.60;;;;;;;11.44;100.00;100762.88;4932478;28;20149;-79
2021/09/09 06:21:05;;;;;;;21.08;15.10;;;;;;;11.69;100.00;100755.25;4933869;28;20050;-80
2021/09/09 06:23:32;;;;;;;18.27;14.63;;;;;;;12.14;100.00;100763.00;4943390;28;20589;-77
2021/09/09 06:26:15;;;;;;;16.23;13.00;;;;;;;12.49;100.00;100759.44;4951000;28;20065;-79
2021/09/09 06:28:45;;;;;;;17.08;12.43;;;;;;;12.71;100.00;100754.41;4960393;28;20050;-81
2021/09/09 06:31:11;;;;;;;14.85;12.27;;;;;;;12.76;100.00;100756.94;4939687;28;20428;-80
2021/09/09 06:33:38;;;;;;;18.35;13.52;;;;;;;12.88;100.00;100756.59;4939197;28;20124;-79
2021/09/09 06:36:05;;;;;;;17.17;12.98;;;;;;;13.58;100.00;100754.53;4949346;28;20137;-81
2021/09/09 06:38:32;;;;;;;14.15;12.57;;;;;;;14.43;100.00;100761.44;4937512;28;20053;-80
2021/09/09 06:40:58;;;;;;;12.15;10.55;;;;;;;15.37;100.00;100759.78;4939784;28;20046;-79
2021/09/09 06:43:25;;;;;;;14.32;10.48;;;;;;;16.15;93.40;100751.34;4954583;28;20038;-80
2021/09/09 06:45:52;;;;;;;14.65;10.82;;;;;;;16.83;83.95;100754.66;4942085;28;20096;-82
2021/09/09 06:48:20;;;;;;;16.48;11.75;;;;;;;17.73;82.14;100750.44;4938062;28;20054;-79
2021/09/09 06:50:46;;;;;;;14.63;10.50;;;;;;;17.97;79.71;100751.91;4949029;28;20035;-80
2021/09/09 06:53:13;;;;;;;13.27;10.57;;;;;;;18.56;75.99;100750.69;4952152;28;20058;-78
2021/09/09 06:55:40;;;;;;;12.88;9.90;;;;;;;18.50;74.99;100756.38;4954838;28;20057;-79
2021/09/09 06:58:06;;;;;;;13.77;10.63;;;;;;;18.95;73.49;100752.25;4944042;28;20042;-80
2021/09/09 07:00:33;;;;;;;17.70;10.57;;;;;;;19.20;72.02;100757.13;4956295;28;20632;-79
2021/09/09 07:03:00;;;;;;;10.82;9.65;;;;;;;19.48;71.83;100755.59;4949187;28;20393;-79
2021/09/09 07:05:27;;;;;;;11.93;10.50;;;;;;;19.44;71.29;100759.41;4960176;28;20039;-79
2021/09/09 07:07:54;;;;;;;13.30;10.68;;;;;;;19.16;72.66;100758.22;4948032;28;20097;-80
2021/09/09 07:10:21;;;;;;;11.55;10.07;;;;;;;19.48;73.08;100763.63;4958837;28;20035;-82
2021/09/09 07:12:48;;;;;;;12.90;10.52;;;;;;;19.65;71.78;100752.88;4966106;28;20046;-81
2021/09/09 07:15:14;;;;;;;10.88;9.73;;;;;;;19.49;72.62;100765.38;4941456;28;20508;-83
2021/09/09 07:17:41;;;;;;;14.30;10.45;;;;;;;19.44;73.25;100770.13;4929386;28;20046;-80
2021/09/09 07:20:09;;;;;;;15.10;11.10;;;;;;;19.45;70.60;100762.00;4972683;28;20038;-79
2021/09/09 07:22:35;;;;;;;15.05;10.25;;;;;;;19.15;71.34;100769.03;4935611;28;20038;-80
2021/09/09 07:25:03;;;;;;;10.70;9.60;;;;;;;19.00;75.78;100755.56;4931648;28;20054;-79
2021/09/09 07:27:31;;;;;;;13.40;10.90;;;;;;;18.40;75.29;100756.91;4959441;28;20057;-78
2021/09/09 07:29:57;;;;;;;13.15;9.68;;;;;;;18.62;75.05;100754.00;4966401;28;20042;-80
2021/09/09 07:32:24;;;;;;;12.43;10.75;;;;;;;18.81;76.71;100752.97;4977468;28;20046;-78
2021/09/09 07:34:51;;;;;;;11.60;10.32;;;;;;;18.76;75.89;100751.50;4974133;28;20051;-79
2021/09/09 07:37:18;;;;;;;12.68;10.43;;;;;;;18.66;76.12;100750.22;4968128;28;20053;-80
2021/09/09 07:39:47;;;;;;;13.68;9.70;;;;;;;18.64;76.21;100746.75;4953044;28;20141;-80
2021/09/09 07:42:14;;;;;;;11.93;10.13;;;;;;;18.72;76.24;100753.47;4964729;28;20046;-80
2021/09/09 07:44:41;;;;;;;11.75;9.93;;;;;;;18.61;72.88;100745.09;4930740;28;20079;-79
2021/09/09 07:47:08;;;;;;;10.73;9.27;;;;;;;18.59;72.68;100749.69;4950855;28;20109;-80
2021/09/09 07:49:35;;;;;;;13.02;9.82;;;;;;;18.61;74.63;100746.91;4964217;28;20116;-79
2021/09/09 07:52:02;;;;;;;11.75;9.55;;;;;;;18.51;72.61;100741.19;4951968;28;20471;-82
2021/09/09 07:54:28;;;;;;;11.38;9.75;;;;;;;18.70;74.66;100741.97;4966687;28;20042;-82
2021/09/09 07:56:55;;;;;;;9.43;8.48;;;;;;;18.79;68.62;100745.97;4925700;28;20047;-83
2021/09/09 07:59:24;;;;;;;13.68;9.57;;;;;;;18.61;69.60;100742.44;4934494;28;20053;-83
2021/09/09 08:01:50;;;;;;;9.90;8.45;;;;;;;18.70;68.99;100739.31;4930512;28;20603;-83
2021/09/09 08:04:18;;;;;;;9.38;8.05;;;;;;;18.73;72.28;100743.63;4944242;28;20043;-83
2021/09/09 08:06:46;;;;;;;10.85;9.15;;;;;;;18.76;71.43;100744.34;4957930;28;20047;-85
2021/09/09 08:09:15;;;;;;;11.43;8.63;;;;;;;18.92;71.30;100743.50;4959683;28;20061;-84
2021/09/09 08:11:45;;;;;;;9.57;7.60;;;;;;;18.80;64.87;100750.38;4943471;28;20030;-84
2021/09/09 08:14:12;;;;;;;9.50;7.78;;;;;;;18.81;67.07;100736.03;4964473;28;20034;-82
2021/09/09 08:16:39;;;;;;;9.23;7.28;;;;;;;18.84;66.57;100744.78;4945318;28;20042;-80
2021/09/09 08:19:05;;;;;;;10.00;7.88;;;;;;;19.00;68.43;100744.84;4958231;28;20044;-81
2021/09/09 08:21:32;;;;;;;9.88;7.63;;;;;;;18.99;67.92;100743.09;4954230;28;20326;-80
2021/09/09 08:23:59;;;;;;;11.02;7.75;;;;;;;19.20;62.59;100740.19;4949000;28;20034;-81
2021/09/09 08:26:26;;;;;;;15.63;7.13;;;;;;;19.05;61.92;100739.22;4959675;28;20046;-80
2021/09/09 08:28:53;;;;;;;9.32;7.43;;;;;;;19.07;68.29;100748.03;4959152;28;20061;-80
2021/09/09 08:31:20;;;;;;;12.73;8.43;;;;;;;19.24;70.57;100744.41;4963318;28;20484;-82
2021/09/09 08:33:46;;;;;;;9.02;7.35;;;;;;;19.22;68.72;100743.66;4960555;28;20124;-81
2021/09/09 08:36:15;;;;;;;9.20;7.38;;;;;;;19.19;66.59;100741.16;4951057;28;20042;-81
2021/09/09 08:38:42;;;;;;;9.93;7.38;;;;;;;19.28;62.99;100743.31;4954139;28;20051;-80
2021/09/09 08:41:08;;;;;;;9.55;7.32;;;;;;;19.23;66.77;100750.72;4957360;28;20038;-81
2021/09/09 08:43:35;;;;;;;10.20;7.35;;;;;;;19.42;66.17;100746.06;4958584;28;20045;-80
2021/09/09 08:46:03;;;;;;;9.73;7.03;;;;;;;19.66;61.14;100751.91;4973652;28;20046;-80
2021/09/09 08:48:30;;;;;;;9.50;7.93;;;;;;;19.77;62.06;100740.59;4950942;28;20595;-81
2021/09/09 08:50:58;;;;;;;9.15;6.63;;;;;;;19.98;61.62;100743.84;4961524;28;20412;-80
2021/09/09 08:53:25;;;;;;;10.32;7.20;;;;;;;20.04;56.55;100739.00;4951448;28;20042;-81
2021/09/09 08:55:51;;;;;;;9.30;7.15;;;;;;;20.16;58.86;100729.34;4959524;28;20475;-80
2021/09/09 08:58:21;;;;;;;10.27;7.65;;;;;;;20.08;66.48;100729.81;4957473;28;20042;-81
2021/09/09 09:01:13;;;;;;;8.57;7.53;;;;;;;20.44;56.61;100732.16;4941836;28;20058;-81
2021/09/09 09:03:55;;;;;;;8.45;7.38;;;;;;;20.68;57.64;100727.13;4961760;28;20042;-81
2021/09/09 09:06:25;;;;;;;8.07;6.68;;;;;;;20.78;56.34;100720.22;4935193;28;20045;-81
2021/09/09 09:08:57;;;;;;;9.63;7.00;;;;;;;20.95;57.08;100721.00;4972081;28;20411;-81
2021/09/09 09:11:29;;;;;;;9.48;7.63;;;;;;;21.14;57.85;100721.56;4984500;28;20047;-79
2021/09/09 09:13:56;;;;;;;10.07;6.65;;;;;;;21.30;55.42;100729.53;4938081;28;20062;-81
2021/09/09 09:16:24;;;;;;;10.35;7.32;;;;;;;21.19;56.62;100719.47;4940579;28;20042;-81
2021/09/09 09:18:51;;;;;;;10.38;6.78;;;;;;;21.61;53.86;100720.38;4948132;28;20065;-79
2021/09/09 09:21:19;;;;;;;9.23;6.53;;;;;;;21.64;55.20;100717.47;4953118;28;20035;-79
2021/09/09 09:23:56;;;;;;;7.68;6.88;;;;;;;21.87;54.07;100713.28;4958283;28;20034;-81
2021/09/09 09:26:26;;;;;;;8.48;6.90;;;;;;;21.75;53.55;100724.81;4940166;28;20046;-80
2021/09/09 09:28:58;;;;;;;8.45;7.55;;;;;;;21.65;52.15;100727.25;4971741;28;20050;-79
2021/09/09 09:31:30;;;;;;;9.77;7.13;;;;;;;22.06;52.85;100720.97;4945892;28;20373;-81
2021/09/09 09:34:05;;;;;;;9.88;6.50;;;;;;;22.29;50.38;100716.75;4949096;28;20053;-80
2021/09/09 09:36:40;;;;;;;8.68;7.13;;;;;;;22.24;51.20;100714.34;4939042;28;20042;-79
2021/09/09 09:39:23;;;;;;;15.57;7.70;;;;;;;22.37;53.64;100714.41;4969124;28;20046;-79
2021/09/09 09:41:53;;;;;;;9.30;7.43;;;;;;;22.45;53.01;100712.91;4981542;28;20046;-80
2021/09/09 09:44:38;;;;;;;9.15;7.28;;;;;;;22.54;54.09;100710.53;4984172;28;20038;-83
2021/09/09 09:47:12;;;;;;;8.18;6.88;;;;;;;22.85;51.35;100703.88;4953648;28;20050;-81
2021/09/09 09:49:42;;;;;;;9.48;8.10;;;;;;;22.77;49.75;100702.53;4923706;28;20058;-80
2021/09/09 09:52:23;;;;;;;8.38;7.53;;;;;;;22.94;49.90;100709.47;4959164;28;20042;-80
2021/09/09 09:55:03;;;;;;;10.38;7.82;;;;;;;22.96;49.93;100707.53;4953529;28;20584;-81
2021/09/09 09:57:33;;;;;;;8.40;7.18;;;;;;;23.12;50.55;100696.53;4955022;28;20130;-79
2021/09/09 10:00:00;;;;;;;12.77;7.95;;;;;;;23.07;52.14;100700.53;4950795;28;20102;-80
2021/09/09 10:02:27;;;;;;;8.63;7.20;;;;;;;23.33;52.47;100702.19;4927380;28;20428;-80
2021/09/09 10:04:57;;;;;;;9.07;7.20;;;;;;;23.59;49.70;100689.47;4941060;28;20411;-80
2021/09/09 10:07:23;;;;;;;8.95;6.97;;;;;;;23.76;48.46;100693.63;4969124;28;20049;-81
2021/09/09 10:09:53;;;;;;;9.38;6.65;;;;;;;23.76;50.39;100691.81;4964642;28;20105;-80
2021/09/09 10:12:25;;;;;;;8.77;7.82;;;;;;;23.59;47.45;100687.66;4972652;28;20500;-80
2021/09/09 10:14:54;;;;;;;10.93;7.65;;;;;;;23.68;49.32;100687.97;4951094;28;20113;-80
2021/09/09 10:17:22;;;;;;;9.50;6.88;;;;;;;23.67;49.88;100684.41;4942211;28;20094;-81
2021/09/09 10:19:49;;;;;;;8.15;7.35;;;;;;;23.82;48.52;100688.66;4949604;28;20054;-80
2021/09/09 10:22:18;;;;;;;8.80;7.05;;;;;;;24.17;50.56;100686.94;4952489;28;20046;-80
2021/09/09 10:24:46;;;;;;;8.07;7.32;;;;;;;24.25;47.98;100687.22;4963041;28;20043;-80
2021/09/09 10:27:21;;;;;;;12.02;7.53;;;;;;;24.45;47.30;100691.09;4966590;28;20050;-80
2021/09/09 10:30:02;;;;;;;8.50;6.78;;;;;;;24.50;46.27;100694.31;4972316;28;20064;-79
2021/09/09 10:32:28;;;;;;;8.70;7.18;;;;;;;24.15;45.96;100696.03;4948604;28;20043;-82
2021/09/09 10:35:26;;;;;;;8.45;7.57;;;;;;;24.36;47.99;100695.38;4970073;28;20055;-80
2021/09/09 10:37:59;;;;;;;8.45;7.18;;;;;;;24.51;45.60;100685.22;4954870;28;20046;-82
2021/09/09 10:40:30;;;;;;;9.63;7.72;;;;;;;24.55;46.53;100675.88;4959811;28;20038;-80
2021/09/09 10:43:26;;;;;;;14.10;7.40;;;;;;;24.60;46.04;100677.25;4972503;28;20038;-81
2021/09/09 10:46:01;;;;;;;9.25;6.88;;;;;;;24.56;47.07;100685.75;4936647;28;20515;-81
2021/09/09 10:48:29;;;;;;;8.57;6.97;;;;;;;24.53;46.89;100673.31;4929318;28;20129;-82
2021/09/09 10:51:12;;;;;;;8.27;6.32;;;;;;;24.87;46.45;100674.19;4937434;28;20053;-82
2021/09/09 10:53:41;;;;;;;6.82;5.90;;;;;;;24.92;44.94;100668.44;4954674;28;20067;-83
2021/09/09 10:56:16;;;;;;;7.68;6.70;;;;;;;24.94;47.61;100670.03;4951104;28;20732;-83
2021/09/09 10:58:44;;;;;;;8.02;6.40;;;;;;;24.88;43.48;100662.41;4930621;28;20050;-82
2021/09/09 11:01:11;;;;;;;16.30;7.90;;;;;;;25.05;43.19;100671.03;4950685;28;20042;-82
2021/09/09 11:03:40;;;;;;;9.23;6.22;;;;;;;25.05;42.98;100660.22;4955208;28;20054;-82
2021/09/09 11:06:15;;;;;;;9.23;6.43;;;;;;;25.17;42.81;100662.78;4971116;28;20136;-81
2021/09/09 11:08:47;;;;;;;7.90;6.03;;;;;;;24.94;41.98;100663.75;4948265;28;20045;-83
2021/09/09 11:11:21;;;;;;;6.95;5.65;;;;;;;25.22;44.99;100665.09;4950178;28;20050;-83
2021/09/09 11:14:08;;;;;;;9.15;6.18;;;;;;;25.39;45.25;100658.31;4960620;28;20756;-82